Aviation Digital Data Service (ADDS)

Output produced by METARs form (1156 UTC 27 March 2015)
found at http://aviationweather.gov/adds/metars/
 
KMHT 271120Z 2712/2812 32005KT 6SM -SHRA BR OVC025 
     FM271330 VRB03KT P6SM OVC035 
     FM271900 33004KT P6SM OVC050 
     FM280500 34006KT 6SM -SHSN OVC035